Latest Coastal Weather Observations for Cape Moreton

IDQ60701

Issued at 10:42 pm EST Monday 30 May 2016 (issued every 10 minutes, with the page automatically refreshed every 10 minutes)

About coastal observations | Map of coastal stations | Coastal observations for QLD | Marine services | Other Formats
Station Details ID: 040043 Name: CAPE MORETON LIGHTHOUSE Lat: -27.03 Lon: 153.47 Height: 99.9 m
Data from the previous 72 hours. | See also: Recent months at Cape Moreton
Date/Time
EST
Temp

°C
Wind Pressure Rain
since 9am
mm
Weather Cloud Vis
km
Sea
Height
m
Swell
Dir
 
Speed
knots
Gust
knots
hPa Trend Height
m
Period
s
Dir
30/10:30pm 18.8 ESE 11 12 1024.3 - 0.0 - - - - - - -
30/10:00pm 19.1 E 10 13 1024.2 - 0.0 - - - - - - -
30/09:30pm 18.7 E 9 13 1024.1 - 0.0 - - - - - - -
30/09:00pm 18.8 E 10 13 1024.1 - 0.0 - - - - - - -
30/08:30pm 18.8 E 8 12 1024.1 - 0.0 - - - - - - -
30/08:00pm 18.9 E 11 15 1023.6 - 0.0 - - - - - - -
30/07:30pm 18.9 E 11 14 1023.4 - 0.0 - - - - - - -
30/07:00pm 18.8 E 10 12 1023.3 - 0.0 - - - - - - -
30/06:30pm 18.6 E 8 10 1023.2 - 0.0 - - - - - - -
30/06:00pm 18.7 ENE 8 11 1022.9 - 0.0 - - - - - - -
30/05:30pm 18.6 E 8 12 1022.8 - 0.0 - - - - - - -
30/05:00pm 18.9 ENE 7 10 1022.5 - 0.0 - - - - - - -
30/04:30pm 19.5 ENE 5 6 1022.3 - 0.0 - - - - - - -
30/04:00pm 19.8 ENE 8 10 1021.9 - 0.0 - - - - - - -
30/03:30pm 20.2 E 6 9 1021.8 - 0.0 - - - - - - -
30/03:00pm 20.5 ESE 8 11 1021.6 - 0.0 - - - - - - -
30/02:30pm 20.8 ESE 9 12 1021.6 - 0.0 - - - - - - -
30/02:00pm 20.6 ESE 10 13 1021.5 - 0.0 - - - - - - -
30/01:30pm 21.1 ESE 9 11 1021.6 - 0.0 - - - - - - -
30/01:00pm 20.9 ESE 9 12 1021.5 - 0.0 - - - - - - -
30/12:30pm 21.3 ESE 9 11 1021.8 - 0.0 - - - - - - -
30/12:00pm 21.6 SE 8 9 1022.3 - 0.0 - - - - - - -
30/11:30am 21.6 SE 7 9 1022.9 - 0.0 - - - - - - -
30/11:00am 21.1 SE 9 11 1023.1 - 0.0 - - - - - - -
30/10:30am 20.6 SE 8 11 1023.2 - 0.0 - - - - - - -
30/10:00am 20.9 SSE 7 10 1023.3 - 0.0 - - - - - - -
30/09:30am 20.2 S 5 8 1023.4 - 0.0 - - - - - - -
30/09:00am 18.7 SSW 6 8 1023.2 - - - - - - - - -
30/08:30am - - - - 1022.9 - - - - - - - - -
30/08:00am - - - - 1022.6 - - - - - - - - -
30/07:30am - - - - 1022.3 - - - - - - - - -
30/07:00am - - - - 1021.9 - - - - - - - - -
30/06:30am - - - - 1021.5 - - - - - - - - -
30/06:00am - - - - 1021.2 - - - - - - - - -
30/05:30am - - - - 1021.0 - - - - - - - - -
30/05:00am - - - - 1020.6 - - - - - - - - -
30/04:30am 13.8 SSW 10 11 1020.2 - 0.0 - - - - - - -
30/04:00am 14.2 SSW 10 11 1020.0 - 0.0 - - - - - - -
30/03:30am 14.5 SSW 10 11 1020.1 - 0.0 - - - - - - -
30/03:00am 14.2 SSW 10 12 1019.9 - 0.0 - - - - - - -
30/02:30am 14.5 SW 12 15 1019.7 - 0.0 - - - - - - -
30/02:00am 14.9 SW 12 14 1019.7 - 0.0 - - - - - - -
30/01:30am 15.5 SW 12 14 1019.6 - 0.0 - - - - - - -
30/01:00am 15.5 SW 12 14 1019.5 - 0.0 - - - - - - -
30/12:30am 15.4 SW 11 13 1019.6 - 0.0 - - - - - - -
30/12:00am 15.1 WSW 8 9 1019.6 - 0.0 - - - - - - -
 
Date/Time
EST
Temp

°C
Wind Pressure Rain
since 9am
mm
Weather Cloud Vis
km
Sea
Height
m
Swell
Dir
 
Speed
knots
Gust
knots
hPa Trend Height
m
Period
s
Dir
29/11:30pm 15.5 W 11 12 1019.7 - 0.0 - - - - - - -
29/11:00pm 15.8 W 11 13 1019.9 - 0.0 - - - - - - -
29/10:30pm 16.9 W 9 10 1020.1 - 0.0 - - - - - - -
29/10:00pm 18.2 N 4 6 1020.1 - 0.0 - - - - - - -
29/09:30pm 18.1 NNE 3 5 1020.0 - 0.0 - - - - - - -
29/09:00pm 18.1 N 3 4 1020.0 - 0.0 - - - - - - -
29/08:30pm 18.0 NE 5 6 1019.9 - 0.0 - - - - - - -
29/08:00pm 17.6 ENE 5 7 1019.5 - 0.0 - - - - - - -
29/07:30pm 17.2 E 6 7 1019.2 - 0.0 - - - - - - -
29/07:00pm 16.6 ESE 7 8 1018.9 - 0.0 - - - - - - -
29/06:30pm 16.6 E 6 7 1018.6 - 0.0 - - - - - - -
29/06:00pm 17.1 ENE 6 8 1018.3 - 0.0 - - - - - - -
29/05:30pm 17.0 ENE 6 7 1017.9 - 0.0 - - - - - - -
29/05:00pm 17.2 ENE 6 7 1017.6 - 0.0 - - - - - - -
29/04:30pm 17.7 E 5 8 1017.3 - 0.0 - - - - - - -
29/04:00pm 19.1 NE 4 6 1017.1 - 0.0 - - - - - - -
29/03:30pm 18.9 N 5 7 1016.9 - 0.0 - - - - - - -
29/03:00pm 19.7 NNW 7 11 1016.6 - 0.0 - - - - - - -
29/02:30pm 22.1 ESE 4 8 1016.5 - 0.0 - - - - - - -
29/02:00pm 22.4 SSW 7 11 1016.0 - 0.0 - - - - - - -
29/01:30pm 20.5 WSW 9 13 1016.3 - 0.0 - - - - - - -
29/01:00pm 19.7 W 8 11 1016.4 - 0.0 - - - - - - -
29/12:30pm 19.5 W 9 12 1016.6 - 0.0 - - - - - - -
29/12:00pm 19.1 W 9 13 1016.9 - 0.0 - - - - - - -
29/11:30am 18.8 SW 11 16 1017.5 - 0.0 - - - - - - -
29/11:00am 19.6 WSW 7 11 1017.6 - 0.0 - - - - - - -
29/10:30am 18.0 SW 11 16 1017.9 - 0.0 - - - - - - -
29/10:00am 17.7 SW 12 19 1018.0 - 0.0 - - - - - - -
29/09:30am 16.7 SW 13 20 1018.2 - 0.0 - - - - - - -
29/09:00am 17.4 SSW 8 13 1018.2 - 0.0 - - - - - - -
29/08:30am 16.7 SW 9 14 1017.9 - 0.0 - - - - - - -
29/08:00am 15.9 SW 8 13 1017.8 - 0.0 - - - - - - -
29/07:30am 14.8 SW 6 9 1017.5 - 0.0 - - - - - - -
29/07:00am 14.2 SW 9 14 1017.2 - 0.0 - - - - - - -
29/06:30am 14.0 SW 11 18 1016.7 - 0.0 - - - - - - -
29/06:00am 14.0 SW 7 12 1016.7 - 0.0 - - - - - - -
29/05:30am 14.5 SW 11 17 1016.4 - 0.0 - - - - - - -
29/05:00am 14.5 SW 13 26 1015.8 - 0.0 - - - - - - -
29/04:30am 14.9 WSW 20 31 1015.1 - 0.0 - - - - - - -
29/04:00am 14.7 SW 16 26 1015.5 - 0.0 - - - - - - -
29/03:30am 14.9 WSW 18 28 1015.0 - 0.0 - - - - - - -
29/03:04am 15.1 WSW 18 30 1014.8 - 0.0 - - - - - - -
29/03:00am 15.0 SW 17 23 1014.9 - 0.0 - - - - - - -
29/02:30am 15.3 SW 17 29 1015.0 - 0.0 - - - - - - -
29/02:23am 15.3 SW 16 27 1015.0 - 0.0 - - - - - - -
29/02:00am 15.5 WSW 17 24 1014.7 - 0.0 - - - - - - -
29/01:30am 15.7 SW 11 19 1015.0 - 0.0 - - - - - - -
29/01:00am 16.1 WSW 17 23 1014.8 - 0.0 - - - - - - -
29/12:30am 16.5 WSW 17 22 1014.9 - 0.0 - - - - - - -
29/12:00am 16.7 WSW 11 16 1015.2 - 0.0 - - - - - - -
 
Date/Time
EST
Temp

°C
Wind Pressure Rain
since 9am
mm
Weather Cloud Vis
km
Sea
Height
m
Swell
Dir
 
Speed
knots
Gust
knots
hPa Trend Height
m
Period
s
Dir
28/11:30pm 17.2 WSW 14 21 1015.1 - 0.0 - - - - - - -
28/11:00pm 17.4 WSW 13 20 1015.3 - 0.0 - - - - - - -
28/10:43pm 17.8 WSW 15 26 1015.3 - 0.0 - - - - - - -
28/10:30pm 17.7 WSW 13 17 1015.5 - 0.0 - - - - - - -
28/10:00pm 17.9 WSW 14 21 1015.3 - 0.0 - - - - - - -
28/09:30pm 18.2 WSW 14 21 1015.0 - 0.0 - - - - - - -
28/09:00pm 18.5 WSW 14 20 1014.9 - 0.0 - - - - - - -
28/08:30pm 18.8 WSW 14 19 1014.7 - 0.0 - - - - - - -
28/08:00pm 19.0 WSW 14 20 1014.6 - 0.0 - - - - - - -
28/07:41pm 19.2 WSW 15 25 1014.3 - 0.0 - - - - - - -
28/07:30pm 19.5 WSW 17 24 1014.0 - 0.0 - - - - - - -
28/07:12pm 19.5 WSW 16 26 1013.7 - 0.0 - - - - - - -
28/07:00pm 19.7 WSW 16 22 1013.5 - 0.0 - - - - - - -
28/06:30pm 20.0 WSW 17 22 1013.3 - 0.0 - - - - - - -
28/06:00pm 19.8 WSW 13 19 1012.7 - 0.0 - - - - - - -
28/05:30pm 20.0 WSW 12 17 1012.2 - 0.0 - - - - - - -
28/05:00pm 20.4 WSW 13 19 1011.4 - 0.0 - - - - - - -
28/04:30pm 21.5 WSW 13 21 1010.9 - 0.0 - - - - - - -
28/04:00pm 21.8 WSW 15 22 1010.7 - 0.0 - - - - - - -
28/03:30pm 22.1 WSW 15 23 1010.2 - 0.0 - - - - - - -
28/03:00pm 22.5 W 14 19 1010.2 - 0.0 - - - - - - -
28/02:30pm 21.9 NNW 6 8 1010.2 - 0.0 - - - - - - -
28/02:00pm 23.1 WNW 6 10 1010.1 - 0.0 - - - - - - -
28/01:30pm 22.0 NW 9 13 1010.4 - 0.0 - - - - - - -
28/01:00pm 22.9 W 7 11 1010.5 - 0.0 - - - - - - -
28/12:30pm 20.9 W 10 17 1010.9 - 0.0 - - - - - - -
28/12:00pm 20.8 W 11 15 1011.5 - 0.0 - - - - - - -
28/11:30am 20.3 WSW 13 19 1011.9 - 0.0 - - - - - - -
28/11:00am 19.1 WSW 11 17 1012.5 - 0.0 - - - - - - -
28/10:30am 18.8 WSW 11 19 1013.0 - 0.0 - - - - - - -
28/10:00am 17.8 W 13 18 1013.1 - 0.0 - - - - - - -
28/09:30am 17.7 WSW 12 17 1013.4 - 0.0 - - - - - - -
28/09:00am 17.1 W 12 17 1013.6 - 0.2 - - - - - - -
28/08:30am 16.9 WSW 11 16 1013.4 - 0.2 - - - - - - -
28/08:00am 16.7 WSW 8 12 1013.3 - 0.2 - - - - - - -
28/07:30am 16.6 WSW 5 9 1013.0 - 0.2 - - - - - - -
28/07:00am 16.1 WSW 7 9 1012.8 - 0.2 - - - - - - -
28/06:30am 15.0 SW 6 9 1012.5 - 0.2 - - - - - - -
28/06:00am 14.8 SW 6 12 1012.2 - 0.2 - - - - - - -
28/05:30am 14.9 SW 7 10 1012.0 - 0.2 - - - - - - -
28/05:00am 15.1 SW 13 17 1011.3 - 0.2 - - - - - - -
28/04:30am 15.4 SSW 11 18 1011.5 - 0.2 - - - - - - -
28/04:00am 16.2 SW 13 19 1011.3 - 0.2 - - - - - - -
28/03:30am 16.4 SW 10 16 1010.7 - 0.2 - - - - - - -
28/03:00am 16.2 S 6 11 1011.0 - 0.2 - - - - - - -
28/02:30am 16.4 WSW 12 21 1010.4 - 0.2 - - - - - - -
28/02:00am 16.4 SW 11 17 1010.7 - 0.2 - - - - - - -
28/01:30am 16.7 SW 10 16 1010.2 - 0.2 - - - - - - -
28/01:01am 16.9 WSW 16 26 1010.1 - 0.2 - - - - - - -
28/01:00am 17.0 WSW 17 26 1010.1 - 0.2 - - - - - - -
28/12:30am 17.6 SW 18 29 1010.0 - 0.2 - - - - - - -
28/12:00am 17.7 WSW 15 25 1009.7 - 0.2 - - - - - - -
 
Date/Time
EST
Temp

°C
Wind Pressure Rain
since 9am
mm
Weather Cloud Vis
km
Sea
Height
m
Swell
Dir
 
Speed
knots
Gust
knots
hPa Trend Height
m
Period
s
Dir
27/11:57pm 17.7 WSW 15 25 1009.6 - 0.2 - - - - - - -
27/11:30pm 17.9 WSW 17 24 1009.8 - 0.2 - - - - - - -
27/11:04pm 18.4 WSW 17 30 1010.3 - 0.2 - - - - - - -
27/11:00pm 18.6 WSW 18 26 1010.3 - 0.2 - - - - - - -
27/10:50pm 18.7 WSW 15 26 1010.0 - 0.2 - - - - - - -

Other Formats:

Comma delimited format used in spreadsheet applications
http://www.bom.gov.au/fwo/IDQ60701/IDQ60701.94594.axf

JavaScript Object Notation format (JSON) in row-major order
http://www.bom.gov.au/fwo/IDQ60701/IDQ60701.94594.json